sensor_id;sensor_type;location;lat;lon;timestamp;P1;durP1;ratioP1;P2;durP2;ratioP2
15555;SDS011;7879;48.660;9.116;2022-10-17T00:00:47;0.10;;;0.10;;
15555;SDS011;7879;48.660;9.116;2022-10-17T00:03:14;0.10;;;0.10;;
15555;SDS011;7879;48.660;9.116;2022-10-17T00:05:41;0.10;;;0.10;;
15555;SDS011;7879;48.660;9.116;2022-10-17T00:08:10;0.10;;;0.10;;
15555;SDS011;7879;48.660;9.116;2022-10-17T00:10:38;0.10;;;0.10;;
15555;SDS011;7879;48.660;9.116;2022-10-17T00:13:05;0.10;;;0.10;;
15555;SDS011;7879;48.660;9.116;2022-10-17T00:15:32;0.10;;;0.10;;
15555;SDS011;7879;48.660;9.116;2022-10-17T00:17:59;0.10;;;0.10;;
15555;SDS011;7879;48.660;9.116;2022-10-17T00:20:26;0.10;;;0.10;;
15555;SDS011;7879;48.660;9.116;2022-10-17T00:22:55;0.10;;;0.10;;
15555;SDS011;7879;48.660;9.116;2022-10-17T00:25:22;0.10;;;0.10;;
15555;SDS011;7879;48.660;9.116;2022-10-17T00:27:49;0.10;;;0.10;;
15555;SDS011;7879;48.660;9.116;2022-10-17T00:30:15;0.13;;;0.13;;
15555;SDS011;7879;48.660;9.116;2022-10-17T00:32:42;0.10;;;0.10;;
15555;SDS011;7879;48.660;9.116;2022-10-17T00:35:09;0.10;;;0.10;;
15555;SDS011;7879;48.660;9.116;2022-10-17T00:37:36;0.10;;;0.10;;
15555;SDS011;7879;48.660;9.116;2022-10-17T00:40:04;0.10;;;0.10;;
15555;SDS011;7879;48.660;9.116;2022-10-17T00:42:31;0.10;;;0.10;;
15555;SDS011;7879;48.660;9.116;2022-10-17T00:45:04;0.10;;;0.10;;
15555;SDS011;7879;48.660;9.116;2022-10-17T00:47:34;0.10;;;0.10;;
15555;SDS011;7879;48.660;9.116;2022-10-17T00:50:02;0.10;;;0.10;;
15555;SDS011;7879;48.660;9.116;2022-10-17T00:52:31;0.10;;;0.10;;
15555;SDS011;7879;48.660;9.116;2022-10-17T00:55:00;0.10;;;0.10;;
15555;SDS011;7879;48.660;9.116;2022-10-17T00:57:33;0.10;;;0.10;;
15555;SDS011;7879;48.660;9.116;2022-10-17T01:00:01;0.10;;;0.10;;
15555;SDS011;7879;48.660;9.116;2022-10-17T01:02:32;0.13;;;0.13;;
15555;SDS011;7879;48.660;9.116;2022-10-17T01:04:59;0.10;;;0.10;;
15555;SDS011;7879;48.660;9.116;2022-10-17T01:07:26;0.10;;;0.10;;
15555;SDS011;7879;48.660;9.116;2022-10-17T01:10:01;0.10;;;0.10;;
15555;SDS011;7879;48.660;9.116;2022-10-17T01:20:59;0.10;;;0.10;;
15555;SDS011;7879;48.660;9.116;2022-10-17T01:24:02;0.10;;;0.10;;
15555;SDS011;7879;48.660;9.116;2022-10-17T01:34:44;0.10;;;0.10;;
15555;SDS011;7879;48.660;9.116;2022-10-17T01:40:33;0.10;;;0.10;;
15555;SDS011;7879;48.660;9.116;2022-10-17T01:45:49;0.17;;;0.17;;
15555;SDS011;7879;48.660;9.116;2022-10-17T01:48:22;0.10;;;0.10;;
15555;SDS011;7879;48.660;9.116;2022-10-17T01:50:57;0.10;;;0.10;;
15555;SDS011;7879;48.660;9.116;2022-10-17T01:53:29;0.13;;;0.13;;
15555;SDS011;7879;48.660;9.116;2022-10-17T01:55:59;0.10;;;0.10;;
15555;SDS011;7879;48.660;9.116;2022-10-17T01:58:32;0.10;;;0.10;;
15555;SDS011;7879;48.660;9.116;2022-10-17T02:01:10;0.10;;;0.10;;
15555;SDS011;7879;48.660;9.116;2022-10-17T02:03:38;0.10;;;0.10;;
15555;SDS011;7879;48.660;9.116;2022-10-17T02:06:08;0.10;;;0.10;;
15555;SDS011;7879;48.660;9.116;2022-10-17T02:08:42;0.10;;;0.10;;
15555;SDS011;7879;48.660;9.116;2022-10-17T02:17:02;0.10;;;0.10;;
15555;SDS011;7879;48.660;9.116;2022-10-17T02:22:50;0.10;;;0.10;;
15555;SDS011;7879;48.660;9.116;2022-10-17T02:25:26;0.10;;;0.10;;
15555;SDS011;7879;48.660;9.116;2022-10-17T02:28:15;0.20;;;0.20;;
15555;SDS011;7879;48.660;9.116;2022-10-17T02:31:18;0.20;;;0.20;;
15555;SDS011;7879;48.660;9.116;2022-10-17T02:33:55;0.10;;;0.10;;
15555;SDS011;7879;48.660;9.116;2022-10-17T02:36:28;0.10;;;0.10;;
15555;SDS011;7879;48.660;9.116;2022-10-17T02:38:58;0.20;;;0.20;;
15555;SDS011;7879;48.660;9.116;2022-10-17T02:41:28;0.10;;;0.10;;
15555;SDS011;7879;48.660;9.116;2022-10-17T02:43:56;0.13;;;0.13;;
15555;SDS011;7879;48.660;9.116;2022-10-17T02:46:27;0.10;;;0.10;;
15555;SDS011;7879;48.660;9.116;2022-10-17T02:48:57;0.10;;;0.10;;
15555;SDS011;7879;48.660;9.116;2022-10-17T02:51:35;0.20;;;0.20;;
15555;SDS011;7879;48.660;9.116;2022-10-17T02:59:58;0.10;;;0.10;;
15555;SDS011;7879;48.660;9.116;2022-10-17T03:02:27;0.10;;;0.10;;
15555;SDS011;7879;48.660;9.116;2022-10-17T03:04:54;0.10;;;0.10;;
15555;SDS011;7879;48.660;9.116;2022-10-17T03:07:21;0.20;;;0.20;;
15555;SDS011;7879;48.660;9.116;2022-10-17T03:09:48;0.10;;;0.10;;
15555;SDS011;7879;48.660;9.116;2022-10-17T03:12:14;0.20;;;0.20;;
15555;SDS011;7879;48.660;9.116;2022-10-17T03:14:41;0.10;;;0.10;;
15555;SDS011;7879;48.660;9.116;2022-10-17T03:17:07;0.20;;;0.20;;
15555;SDS011;7879;48.660;9.116;2022-10-17T03:19:34;0.10;;;0.10;;
15555;SDS011;7879;48.660;9.116;2022-10-17T03:22:00;0.20;;;0.20;;
15555;SDS011;7879;48.660;9.116;2022-10-17T03:24:27;0.10;;;0.10;;
15555;SDS011;7879;48.660;9.116;2022-10-17T03:26:54;0.20;;;0.20;;
15555;SDS011;7879;48.660;9.116;2022-10-17T03:29:20;0.10;;;0.10;;
15555;SDS011;7879;48.660;9.116;2022-10-17T03:31:47;0.20;;;0.20;;
15555;SDS011;7879;48.660;9.116;2022-10-17T03:34:13;0.10;;;0.10;;
15555;SDS011;7879;48.660;9.116;2022-10-17T03:36:42;0.13;;;0.13;;
15555;SDS011;7879;48.660;9.116;2022-10-17T03:39:09;0.10;;;0.10;;
15555;SDS011;7879;48.660;9.116;2022-10-17T03:41:36;0.10;;;0.10;;
15555;SDS011;7879;48.660;9.116;2022-10-17T03:44:03;0.10;;;0.10;;
15555;SDS011;7879;48.660;9.116;2022-10-17T03:46:29;0.10;;;0.10;;
15555;SDS011;7879;48.660;9.116;2022-10-17T03:48:56;0.10;;;0.10;;
15555;SDS011;7879;48.660;9.116;2022-10-17T03:51:23;0.10;;;0.10;;
15555;SDS011;7879;48.660;9.116;2022-10-17T03:53:50;0.10;;;0.10;;
15555;SDS011;7879;48.660;9.116;2022-10-17T03:56:21;0.10;;;0.10;;
15555;SDS011;7879;48.660;9.116;2022-10-17T03:58:49;0.10;;;0.10;;
15555;SDS011;7879;48.660;9.116;2022-10-17T04:01:16;0.10;;;0.10;;
15555;SDS011;7879;48.660;9.116;2022-10-17T04:03:47;0.10;;;0.10;;
15555;SDS011;7879;48.660;9.116;2022-10-17T04:06:14;0.10;;;0.10;;
15555;SDS011;7879;48.660;9.116;2022-10-17T04:08:41;0.20;;;0.20;;
15555;SDS011;7879;48.660;9.116;2022-10-17T04:11:08;0.10;;;0.10;;
15555;SDS011;7879;48.660;9.116;2022-10-17T04:13:38;0.20;;;0.20;;
15555;SDS011;7879;48.660;9.116;2022-10-17T04:16:07;0.10;;;0.10;;
15555;SDS011;7879;48.660;9.116;2022-10-17T04:18:37;0.20;;;0.20;;
15555;SDS011;7879;48.660;9.116;2022-10-17T04:21:04;0.10;;;0.10;;
15555;SDS011;7879;48.660;9.116;2022-10-17T04:23:31;0.20;;;0.20;;
15555;SDS011;7879;48.660;9.116;2022-10-17T04:25:59;0.10;;;0.10;;
15555;SDS011;7879;48.660;9.116;2022-10-17T04:28:26;0.20;;;0.20;;
15555;SDS011;7879;48.660;9.116;2022-10-17T04:30:58;0.10;;;0.10;;
15555;SDS011;7879;48.660;9.116;2022-10-17T04:33:30;0.20;;;0.20;;
15555;SDS011;7879;48.660;9.116;2022-10-17T04:35:57;0.10;;;0.10;;
15555;SDS011;7879;48.660;9.116;2022-10-17T04:38:26;0.15;;;0.15;;
15555;SDS011;7879;48.660;9.116;2022-10-17T04:40:55;0.10;;;0.10;;
15555;SDS011;7879;48.660;9.116;2022-10-17T04:43:23;0.20;;;0.20;;
15555;SDS011;7879;48.660;9.116;2022-10-17T04:45:50;0.10;;;0.10;;
15555;SDS011;7879;48.660;9.116;2022-10-17T04:48:16;0.20;;;0.20;;
15555;SDS011;7879;48.660;9.116;2022-10-17T04:50:52;0.10;;;0.10;;
15555;SDS011;7879;48.660;9.116;2022-10-17T04:53:20;0.20;;;0.20;;
15555;SDS011;7879;48.660;9.116;2022-10-17T04:55:47;0.10;;;0.10;;
15555;SDS011;7879;48.660;9.116;2022-10-17T04:58:14;0.20;;;0.20;;
15555;SDS011;7879;48.660;9.116;2022-10-17T05:00:41;0.10;;;0.10;;
15555;SDS011;7879;48.660;9.116;2022-10-17T05:03:08;0.20;;;0.20;;
15555;SDS011;7879;48.660;9.116;2022-10-17T05:05:38;0.10;;;0.10;;
15555;SDS011;7879;48.660;9.116;2022-10-17T05:08:06;0.20;;;0.20;;
15555;SDS011;7879;48.660;9.116;2022-10-17T05:10:38;0.10;;;0.10;;
15555;SDS011;7879;48.660;9.116;2022-10-17T05:13:07;0.20;;;0.20;;
15555;SDS011;7879;48.660;9.116;2022-10-17T05:15:35;0.10;;;0.10;;
15555;SDS011;7879;48.660;9.116;2022-10-17T05:18:02;0.20;;;0.20;;
15555;SDS011;7879;48.660;9.116;2022-10-17T05:20:29;0.10;;;0.10;;
15555;SDS011;7879;48.660;9.116;2022-10-17T05:22:59;0.20;;;0.20;;
15555;SDS011;7879;48.660;9.116;2022-10-17T05:25:27;0.10;;;0.10;;
15555;SDS011;7879;48.660;9.116;2022-10-17T05:27:53;0.17;;;0.17;;
15555;SDS011;7879;48.660;9.116;2022-10-17T05:30:20;0.10;;;0.10;;
15555;SDS011;7879;48.660;9.116;2022-10-17T05:32:48;0.20;;;0.20;;
15555;SDS011;7879;48.660;9.116;2022-10-17T05:35:17;0.10;;;0.10;;
15555;SDS011;7879;48.660;9.116;2022-10-17T05:37:44;0.10;;;0.10;;
15555;SDS011;7879;48.660;9.116;2022-10-17T05:40:11;0.10;;;0.10;;
15555;SDS011;7879;48.660;9.116;2022-10-17T05:42:38;0.20;;;0.20;;
15555;SDS011;7879;48.660;9.116;2022-10-17T05:45:04;0.10;;;0.10;;
15555;SDS011;7879;48.660;9.116;2022-10-17T05:47:31;0.20;;;0.20;;
15555;SDS011;7879;48.660;9.116;2022-10-17T05:49:58;0.10;;;0.10;;
15555;SDS011;7879;48.660;9.116;2022-10-17T05:52:25;0.20;;;0.20;;
15555;SDS011;7879;48.660;9.116;2022-10-17T05:54:52;0.10;;;0.10;;
15555;SDS011;7879;48.660;9.116;2022-10-17T05:57:19;0.20;;;0.20;;
15555;SDS011;7879;48.660;9.116;2022-10-17T05:59:45;0.10;;;0.10;;
15555;SDS011;7879;48.660;9.116;2022-10-17T06:02:12;0.20;;;0.20;;
15555;SDS011;7879;48.660;9.116;2022-10-17T06:04:39;0.10;;;0.10;;
15555;SDS011;7879;48.660;9.116;2022-10-17T06:07:18;0.20;;;0.20;;
15555;SDS011;7879;48.660;9.116;2022-10-17T06:10:33;0.20;;;0.20;;
15555;SDS011;7879;48.660;9.116;2022-10-17T06:13:40;0.20;;;0.20;;
15555;SDS011;7879;48.660;9.116;2022-10-17T06:16:27;0.10;;;0.10;;
15555;SDS011;7879;48.660;9.116;2022-10-17T06:19:44;0.10;;;0.10;;
15555;SDS011;7879;48.660;9.116;2022-10-17T06:22:33;0.13;;;0.13;;
15555;SDS011;7879;48.660;9.116;2022-10-17T06:25:36;0.20;;;0.20;;
15555;SDS011;7879;48.660;9.116;2022-10-17T06:28:40;0.20;;;0.20;;
15555;SDS011;7879;48.660;9.116;2022-10-17T06:31:32;0.10;;;0.10;;
15555;SDS011;7879;48.660;9.116;2022-10-17T06:34:41;0.10;;;0.10;;
15555;SDS011;7879;48.660;9.116;2022-10-17T06:37:32;0.10;;;0.10;;
15555;SDS011;7879;48.660;9.116;2022-10-17T06:40:14;0.20;;;0.20;;
15555;SDS011;7879;48.660;9.116;2022-10-17T06:43:05;0.20;;;0.20;;
15555;SDS011;7879;48.660;9.116;2022-10-17T06:45:43;0.10;;;0.10;;
15555;SDS011;7879;48.660;9.116;2022-10-17T06:48:24;0.10;;;0.10;;
15555;SDS011;7879;48.660;9.116;2022-10-17T06:51:16;0.10;;;0.10;;
15555;SDS011;7879;48.660;9.116;2022-10-17T06:54:13;0.20;;;0.20;;
15555;SDS011;7879;48.660;9.116;2022-10-17T06:56:50;0.10;;;0.10;;
15555;SDS011;7879;48.660;9.116;2022-10-17T07:02:57;0.20;;;0.20;;
15555;SDS011;7879;48.660;9.116;2022-10-17T07:06:01;0.20;;;0.20;;
15555;SDS011;7879;48.660;9.116;2022-10-17T07:08:43;0.20;;;0.20;;
15555;SDS011;7879;48.660;9.116;2022-10-17T07:14:51;0.20;;;0.20;;
15555;SDS011;7879;48.660;9.116;2022-10-17T07:17:48;0.10;;;0.10;;
15555;SDS011;7879;48.660;9.116;2022-10-17T07:23:36;0.10;;;0.10;;
15555;SDS011;7879;48.660;9.116;2022-10-17T07:26:04;0.10;;;0.10;;
15555;SDS011;7879;48.660;9.116;2022-10-17T07:28:34;0.10;;;0.10;;
15555;SDS011;7879;48.660;9.116;2022-10-17T07:31:04;0.03;;;0.03;;
15555;SDS011;7879;48.660;9.116;2022-10-17T07:33:32;0.10;;;0.10;;
15555;SDS011;7879;48.660;9.116;2022-10-17T07:36:00;0.10;;;0.10;;
15555;SDS011;7879;48.660;9.116;2022-10-17T07:38:27;0.10;;;0.10;;
15555;SDS011;7879;48.660;9.116;2022-10-17T07:40:55;0.10;;;0.10;;
15555;SDS011;7879;48.660;9.116;2022-10-17T07:43:34;0.10;;;0.10;;
15555;SDS011;7879;48.660;9.116;2022-10-17T07:46:02;0.10;;;0.10;;
15555;SDS011;7879;48.660;9.116;2022-10-17T07:48:30;0.00;;;0.00;;
15555;SDS011;7879;48.660;9.116;2022-10-17T07:51:00;0.10;;;0.10;;
15555;SDS011;7879;48.660;9.116;2022-10-17T07:53:28;0.10;;;0.10;;
15555;SDS011;7879;48.660;9.116;2022-10-17T07:55:55;0.10;;;0.10;;
15555;SDS011;7879;48.660;9.116;2022-10-17T07:58:22;0.10;;;0.10;;
15555;SDS011;7879;48.660;9.116;2022-10-17T08:00:49;0.00;;;0.00;;
15555;SDS011;7879;48.660;9.116;2022-10-17T08:03:16;0.00;;;0.00;;
15555;SDS011;7879;48.660;9.116;2022-10-17T08:05:43;0.00;;;0.00;;
15555;SDS011;7879;48.660;9.116;2022-10-17T08:08:10;0.10;;;0.10;;
15555;SDS011;7879;48.660;9.116;2022-10-17T08:10:36;0.10;;;0.10;;
15555;SDS011;7879;48.660;9.116;2022-10-17T08:13:03;0.00;;;0.00;;
15555;SDS011;7879;48.660;9.116;2022-10-17T08:15:30;0.08;;;0.08;;
15555;SDS011;7879;48.660;9.116;2022-10-17T08:17:57;0.00;;;0.00;;
15555;SDS011;7879;48.660;9.116;2022-10-17T08:20:24;0.00;;;0.00;;
15555;SDS011;7879;48.660;9.116;2022-10-17T08:22:51;0.00;;;0.00;;
15555;SDS011;7879;48.660;9.116;2022-10-17T08:25:19;0.00;;;0.00;;
15555;SDS011;7879;48.660;9.116;2022-10-17T08:27:47;0.00;;;0.00;;
15555;SDS011;7879;48.660;9.116;2022-10-17T08:30:13;0.10;;;0.10;;
15555;SDS011;7879;48.660;9.116;2022-10-17T08:32:40;0.00;;;0.00;;
15555;SDS011;7879;48.660;9.116;2022-10-17T08:35:08;0.00;;;0.00;;
15555;SDS011;7879;48.660;9.116;2022-10-17T08:37:35;0.00;;;0.00;;
15555;SDS011;7879;48.660;9.116;2022-10-17T08:40:02;0.00;;;0.00;;
15555;SDS011;7879;48.660;9.116;2022-10-17T08:48:07;0.00;;;0.00;;
15555;SDS011;7879;48.660;9.116;2022-10-17T08:56:06;0.00;;;0.00;;
15555;SDS011;7879;48.660;9.116;2022-10-17T08:59:03;0.00;;;0.00;;
15555;SDS011;7879;48.660;9.116;2022-10-17T09:04:21;0.00;;;0.00;;
15555;SDS011;7879;48.660;9.116;2022-10-17T09:12:45;0.00;;;0.00;;
15555;SDS011;7879;48.660;9.116;2022-10-17T09:18:45;0.00;;;0.00;;
15555;SDS011;7879;48.660;9.116;2022-10-17T09:21:06;0.00;;;0.00;;
15555;SDS011;7879;48.660;9.116;2022-10-17T09:23:44;0.00;;;0.00;;
15555;SDS011;7879;48.660;9.116;2022-10-17T09:26:35;0.00;;;0.00;;
15555;SDS011;7879;48.660;9.116;2022-10-17T09:29:04;0.00;;;0.00;;
15555;SDS011;7879;48.660;9.116;2022-10-17T09:32:13;0.00;;;0.00;;
15555;SDS011;7879;48.660;9.116;2022-10-17T09:34:44;0.00;;;0.00;;
15555;SDS011;7879;48.660;9.116;2022-10-17T09:37:14;0.00;;;0.00;;
15555;SDS011;7879;48.660;9.116;2022-10-17T09:39:42;0.00;;;0.00;;
15555;SDS011;7879;48.660;9.116;2022-10-17T09:42:11;0.00;;;0.00;;
15555;SDS011;7879;48.660;9.116;2022-10-17T09:47:54;0.00;;;0.00;;
15555;SDS011;7879;48.660;9.116;2022-10-17T09:50:31;0.00;;;0.00;;
15555;SDS011;7879;48.660;9.116;2022-10-17T09:53:11;0.00;;;0.00;;
15555;SDS011;7879;48.660;9.116;2022-10-17T09:55:45;0.00;;;0.00;;
15555;SDS011;7879;48.660;9.116;2022-10-17T09:58:20;0.00;;;0.00;;
15555;SDS011;7879;48.660;9.116;2022-10-17T10:00:47;0.00;;;0.00;;
15555;SDS011;7879;48.660;9.116;2022-10-17T10:03:21;0.00;;;0.00;;
15555;SDS011;7879;48.660;9.116;2022-10-17T10:05:57;0.00;;;0.00;;
15555;SDS011;7879;48.660;9.116;2022-10-17T10:08:33;0.00;;;0.00;;
15555;SDS011;7879;48.660;9.116;2022-10-17T10:11:07;0.00;;;0.00;;
15555;SDS011;7879;48.660;9.116;2022-10-17T10:13:39;0.00;;;0.00;;
15555;SDS011;7879;48.660;9.116;2022-10-17T10:16:22;0.00;;;0.00;;
15555;SDS011;7879;48.660;9.116;2022-10-17T10:18:56;0.00;;;0.00;;
15555;SDS011;7879;48.660;9.116;2022-10-17T10:21:24;0.00;;;0.00;;
15555;SDS011;7879;48.660;9.116;2022-10-17T10:26:25;0.00;;;0.00;;
15555;SDS011;7879;48.660;9.116;2022-10-17T10:31:35;0.00;;;0.00;;
15555;SDS011;7879;48.660;9.116;2022-10-17T10:34:13;0.00;;;0.00;;
15555;SDS011;7879;48.660;9.116;2022-10-17T10:39:36;0.00;;;0.00;;
15555;SDS011;7879;48.660;9.116;2022-10-17T10:42:17;0.00;;;0.00;;
15555;SDS011;7879;48.660;9.116;2022-10-17T10:44:54;0.00;;;0.00;;
15555;SDS011;7879;48.660;9.116;2022-10-17T10:48:01;0.00;;;0.00;;
15555;SDS011;7879;48.660;9.116;2022-10-17T10:50:35;0.00;;;0.00;;
15555;SDS011;7879;48.660;9.116;2022-10-17T10:53:13;0.00;;;0.00;;
15555;SDS011;7879;48.660;9.116;2022-10-17T10:58:31;0.00;;;0.00;;
15555;SDS011;7879;48.660;9.116;2022-10-17T11:01:11;0.00;;;0.00;;
15555;SDS011;7879;48.660;9.116;2022-10-17T11:03:49;0.00;;;0.00;;
15555;SDS011;7879;48.660;9.116;2022-10-17T11:06:20;0.00;;;0.00;;
15555;SDS011;7879;48.660;9.116;2022-10-17T11:09:44;0.00;;;0.00;;
15555;SDS011;7879;48.660;9.116;2022-10-17T11:11:41;0.00;;;0.00;;
15555;SDS011;7879;48.660;9.116;2022-10-17T11:14:17;0.00;;;0.00;;
15555;SDS011;7879;48.660;9.116;2022-10-17T11:16:59;0.00;;;0.00;;
15555;SDS011;7879;48.660;9.116;2022-10-17T11:19:40;0.00;;;0.00;;
15555;SDS011;7879;48.660;9.116;2022-10-17T11:22:14;0.00;;;0.00;;
15555;SDS011;7879;48.660;9.116;2022-10-17T11:24:55;0.00;;;0.00;;
15555;SDS011;7879;48.660;9.116;2022-10-17T11:27:29;0.00;;;0.00;;
15555;SDS011;7879;48.660;9.116;2022-10-17T11:29:56;0.00;;;0.00;;
15555;SDS011;7879;48.660;9.116;2022-10-17T11:32:25;0.00;;;0.00;;
15555;SDS011;7879;48.660;9.116;2022-10-17T11:35:04;0.00;;;0.00;;
15555;SDS011;7879;48.660;9.116;2022-10-17T11:37:41;0.00;;;0.00;;
15555;SDS011;7879;48.660;9.116;2022-10-17T11:40:15;0.00;;;0.00;;
15555;SDS011;7879;48.660;9.116;2022-10-17T11:45:28;0.00;;;0.00;;
15555;SDS011;7879;48.660;9.116;2022-10-17T11:48:01;0.00;;;0.00;;
15555;SDS011;7879;48.660;9.116;2022-10-17T11:50:38;0.00;;;0.00;;
15555;SDS011;7879;48.660;9.116;2022-10-17T11:53:30;0.00;;;0.00;;
15555;SDS011;7879;48.660;9.116;2022-10-17T11:56:08;0.00;;;0.00;;
15555;SDS011;7879;48.660;9.116;2022-10-17T11:58:51;0.00;;;0.00;;
15555;SDS011;7879;48.660;9.116;2022-10-17T12:01:31;0.00;;;0.00;;
15555;SDS011;7879;48.660;9.116;2022-10-17T12:07:23;0.00;;;0.00;;
15555;SDS011;7879;48.660;9.116;2022-10-17T12:12:48;0.00;;;0.00;;
15555;SDS011;7879;48.660;9.116;2022-10-17T12:17:45;0.00;;;0.00;;
15555;SDS011;7879;48.660;9.116;2022-10-17T12:22:49;0.00;;;0.00;;
15555;SDS011;7879;48.660;9.116;2022-10-17T12:25:22;0.00;;;0.00;;
15555;SDS011;7879;48.660;9.116;2022-10-17T12:30:55;0.00;;;0.00;;
15555;SDS011;7879;48.660;9.116;2022-10-17T12:38:42;0.00;;;0.00;;
15555;SDS011;7879;48.660;9.116;2022-10-17T12:41:15;0.00;;;0.00;;
15555;SDS011;7879;48.660;9.116;2022-10-17T12:44:22;0.00;;;0.00;;
15555;SDS011;7879;48.660;9.116;2022-10-17T12:49:45;0.00;;;0.00;;
15555;SDS011;7879;48.660;9.116;2022-10-17T12:52:26;0.00;;;0.00;;
15555;SDS011;7879;48.660;9.116;2022-10-17T12:54:56;0.00;;;0.00;;
15555;SDS011;7879;48.660;9.116;2022-10-17T13:03:05;0.00;;;0.00;;
15555;SDS011;7879;48.660;9.116;2022-10-17T13:05:42;0.00;;;0.00;;
15555;SDS011;7879;48.660;9.116;2022-10-17T13:08:15;0.00;;;0.00;;
15555;SDS011;7879;48.660;9.116;2022-10-17T13:10:55;0.00;;;0.00;;
15555;SDS011;7879;48.660;9.116;2022-10-17T13:13:41;0.00;;;0.00;;
15555;SDS011;7879;48.660;9.116;2022-10-17T13:19:17;0.00;;;0.00;;
15555;SDS011;7879;48.660;9.116;2022-10-17T13:24:22;0.00;;;0.00;;
15555;SDS011;7879;48.660;9.116;2022-10-17T13:26:49;0.00;;;0.00;;
15555;SDS011;7879;48.660;9.116;2022-10-17T13:29:16;0.00;;;0.00;;
15555;SDS011;7879;48.660;9.116;2022-10-17T13:31:44;0.00;;;0.00;;
15555;SDS011;7879;48.660;9.116;2022-10-17T13:34:21;0.00;;;0.00;;
15555;SDS011;7879;48.660;9.116;2022-10-17T13:36:51;0.00;;;0.00;;
15555;SDS011;7879;48.660;9.116;2022-10-17T13:39:23;0.00;;;0.00;;
15555;SDS011;7879;48.660;9.116;2022-10-17T13:42:16;0.00;;;0.00;;
15555;SDS011;7879;48.660;9.116;2022-10-17T13:44:45;0.00;;;0.00;;
15555;SDS011;7879;48.660;9.116;2022-10-17T13:47:22;0.00;;;0.00;;
15555;SDS011;7879;48.660;9.116;2022-10-17T13:49:52;0.00;;;0.00;;
15555;SDS011;7879;48.660;9.116;2022-10-17T13:52:21;0.00;;;0.00;;
15555;SDS011;7879;48.660;9.116;2022-10-17T13:54:52;0.00;;;0.00;;
15555;SDS011;7879;48.660;9.116;2022-10-17T13:59:48;0.00;;;0.00;;
15555;SDS011;7879;48.660;9.116;2022-10-17T14:02:18;0.00;;;0.00;;
15555;SDS011;7879;48.660;9.116;2022-10-17T14:04:58;0.00;;;0.00;;
15555;SDS011;7879;48.660;9.116;2022-10-17T14:07:53;0.00;;;0.00;;
15555;SDS011;7879;48.660;9.116;2022-10-17T14:10:39;0.00;;;0.00;;
15555;SDS011;7879;48.660;9.116;2022-10-17T14:13:13;0.00;;;0.00;;
15555;SDS011;7879;48.660;9.116;2022-10-17T14:15:48;0.00;;;0.00;;
15555;SDS011;7879;48.660;9.116;2022-10-17T14:18:17;0.00;;;0.00;;
15555;SDS011;7879;48.660;9.116;2022-10-17T14:20:47;0.00;;;0.00;;
15555;SDS011;7879;48.660;9.116;2022-10-17T14:23:39;0.00;;;0.00;;
15555;SDS011;7879;48.660;9.116;2022-10-17T14:26:24;0.00;;;0.00;;
15555;SDS011;7879;48.660;9.116;2022-10-17T14:29:04;0.00;;;0.00;;
15555;SDS011;7879;48.660;9.116;2022-10-17T14:31:46;0.00;;;0.00;;
15555;SDS011;7879;48.660;9.116;2022-10-17T14:34:19;0.00;;;0.00;;
15555;SDS011;7879;48.660;9.116;2022-10-17T14:36:51;0.00;;;0.00;;
15555;SDS011;7879;48.660;9.116;2022-10-17T14:39:19;0.00;;;0.00;;
15555;SDS011;7879;48.660;9.116;2022-10-17T14:41:49;0.00;;;0.00;;
15555;SDS011;7879;48.660;9.116;2022-10-17T14:46:53;0.00;;;0.00;;
15555;SDS011;7879;48.660;9.116;2022-10-17T14:54:45;0.00;;;0.00;;
15555;SDS011;7879;48.660;9.116;2022-10-17T14:57:17;0.00;;;0.00;;
15555;SDS011;7879;48.660;9.116;2022-10-17T15:00:00;0.00;;;0.00;;
15555;SDS011;7879;48.660;9.116;2022-10-17T15:02:27;0.00;;;0.00;;
15555;SDS011;7879;48.660;9.116;2022-10-17T15:04:55;0.00;;;0.00;;
15555;SDS011;7879;48.660;9.116;2022-10-17T15:07:22;0.00;;;0.00;;
15555;SDS011;7879;48.660;9.116;2022-10-17T15:09:49;0.00;;;0.00;;
15555;SDS011;7879;48.660;9.116;2022-10-17T15:12:18;0.00;;;0.00;;
15555;SDS011;7879;48.660;9.116;2022-10-17T15:14:50;0.00;;;0.00;;
15555;SDS011;7879;48.660;9.116;2022-10-17T15:17:22;0.00;;;0.00;;
15555;SDS011;7879;48.660;9.116;2022-10-17T15:19:54;0.00;;;0.00;;
15555;SDS011;7879;48.660;9.116;2022-10-17T15:22:21;0.00;;;0.00;;
15555;SDS011;7879;48.660;9.116;2022-10-17T15:24:48;0.00;;;0.00;;
15555;SDS011;7879;48.660;9.116;2022-10-17T15:27:16;0.00;;;0.00;;
15555;SDS011;7879;48.660;9.116;2022-10-17T15:29:46;0.00;;;0.00;;
15555;SDS011;7879;48.660;9.116;2022-10-17T15:32:14;0.00;;;0.00;;
15555;SDS011;7879;48.660;9.116;2022-10-17T15:34:41;0.00;;;0.00;;
15555;SDS011;7879;48.660;9.116;2022-10-17T15:37:18;0.00;;;0.00;;
15555;SDS011;7879;48.660;9.116;2022-10-17T15:39:48;0.00;;;0.00;;
15555;SDS011;7879;48.660;9.116;2022-10-17T15:42:19;0.00;;;0.00;;
15555;SDS011;7879;48.660;9.116;2022-10-17T15:44:56;0.00;;;0.00;;
15555;SDS011;7879;48.660;9.116;2022-10-17T15:47:24;0.00;;;0.00;;
15555;SDS011;7879;48.660;9.116;2022-10-17T15:49:54;0.00;;;0.00;;
15555;SDS011;7879;48.660;9.116;2022-10-17T15:52:21;0.00;;;0.00;;
15555;SDS011;7879;48.660;9.116;2022-10-17T15:54:49;0.00;;;0.00;;
15555;SDS011;7879;48.660;9.116;2022-10-17T15:57:23;0.00;;;0.00;;
15555;SDS011;7879;48.660;9.116;2022-10-17T15:59:52;0.00;;;0.00;;
15555;SDS011;7879;48.660;9.116;2022-10-17T16:02:20;0.00;;;0.00;;
15555;SDS011;7879;48.660;9.116;2022-10-17T16:04:49;0.00;;;0.00;;
15555;SDS011;7879;48.660;9.116;2022-10-17T16:07:17;0.00;;;0.00;;
15555;SDS011;7879;48.660;9.116;2022-10-17T16:09:45;0.00;;;0.00;;
15555;SDS011;7879;48.660;9.116;2022-10-17T16:12:16;0.00;;;0.00;;
15555;SDS011;7879;48.660;9.116;2022-10-17T16:14:53;0.00;;;0.00;;
15555;SDS011;7879;48.660;9.116;2022-10-17T16:17:20;0.00;;;0.00;;
15555;SDS011;7879;48.660;9.116;2022-10-17T16:19:47;0.00;;;0.00;;
15555;SDS011;7879;48.660;9.116;2022-10-17T16:22:18;0.00;;;0.00;;
15555;SDS011;7879;48.660;9.116;2022-10-17T16:24:49;0.00;;;0.00;;
15555;SDS011;7879;48.660;9.116;2022-10-17T16:27:23;0.00;;;0.00;;
15555;SDS011;7879;48.660;9.116;2022-10-17T16:29:50;0.00;;;0.00;;
15555;SDS011;7879;48.660;9.116;2022-10-17T16:32:16;0.00;;;0.00;;
15555;SDS011;7879;48.660;9.116;2022-10-17T16:34:43;0.00;;;0.00;;
15555;SDS011;7879;48.660;9.116;2022-10-17T16:37:10;0.00;;;0.00;;
15555;SDS011;7879;48.660;9.116;2022-10-17T16:39:36;0.00;;;0.00;;
15555;SDS011;7879;48.660;9.116;2022-10-17T16:42:03;0.00;;;0.00;;
15555;SDS011;7879;48.660;9.116;2022-10-17T16:44:30;0.10;;;0.10;;
15555;SDS011;7879;48.660;9.116;2022-10-17T16:46:56;0.00;;;0.00;;
15555;SDS011;7879;48.660;9.116;2022-10-17T16:49:23;0.00;;;0.00;;
15555;SDS011;7879;48.660;9.116;2022-10-17T16:51:50;0.00;;;0.00;;
15555;SDS011;7879;48.660;9.116;2022-10-17T16:54:16;0.00;;;0.00;;
15555;SDS011;7879;48.660;9.116;2022-10-17T16:56:43;0.00;;;0.00;;
15555;SDS011;7879;48.660;9.116;2022-10-17T16:59:10;0.00;;;0.00;;
15555;SDS011;7879;48.660;9.116;2022-10-17T17:01:37;0.00;;;0.00;;
15555;SDS011;7879;48.660;9.116;2022-10-17T17:04:04;0.00;;;0.00;;
15555;SDS011;7879;48.660;9.116;2022-10-17T17:06:31;0.00;;;0.00;;
15555;SDS011;7879;48.660;9.116;2022-10-17T17:08:57;0.03;;;0.03;;
15555;SDS011;7879;48.660;9.116;2022-10-17T17:11:24;0.00;;;0.00;;
15555;SDS011;7879;48.660;9.116;2022-10-17T17:13:55;0.08;;;0.08;;
15555;SDS011;7879;48.660;9.116;2022-10-17T17:16:24;0.00;;;0.00;;
15555;SDS011;7879;48.660;9.116;2022-10-17T17:18:56;0.00;;;0.00;;
15555;SDS011;7879;48.660;9.116;2022-10-17T17:21:28;0.10;;;0.10;;
15555;SDS011;7879;48.660;9.116;2022-10-17T17:24:00;0.00;;;0.00;;
15555;SDS011;7879;48.660;9.116;2022-10-17T17:26:29;0.03;;;0.03;;
15555;SDS011;7879;48.660;9.116;2022-10-17T17:28:58;0.00;;;0.00;;
15555;SDS011;7879;48.660;9.116;2022-10-17T17:31:26;0.00;;;0.00;;
15555;SDS011;7879;48.660;9.116;2022-10-17T17:33:54;0.00;;;0.00;;
15555;SDS011;7879;48.660;9.116;2022-10-17T17:36:23;0.00;;;0.00;;
15555;SDS011;7879;48.660;9.116;2022-10-17T17:38:53;0.10;;;0.10;;
15555;SDS011;7879;48.660;9.116;2022-10-17T17:41:21;0.00;;;0.00;;
15555;SDS011;7879;48.660;9.116;2022-10-17T17:43:49;0.00;;;0.00;;